Emma Miller — WDE7441 — position and weather

sailwx.info

Track history (hours):
 
Tides and Currents Weather Stations Pressure Air Temp Water Temp Dewpoint Dewpoint Depression Visibility Wind Speed Wind Dir Waves Ship Positions

Emma Miller

Owner: Marine Oil Service of New York, Elizabeth, NJ. More information available from US FCC via Universal Licensing System and Coast Guard Vessel Documentation Center.

Last reported at 2018-May-07 20:10 UTC. Time now 2018-May-26 04:13 UTC.
Position N 40°38' W 074°12'.
Warning: this ship's position is 18 days out of date.

; draft 1.7 m.

Type: Tanker. MMSI: 367393330.

Date/timePositionNaut miles runAvg speedWind from/ knotsBaromVisibWave heightAir tempDewpointWater temp
2018-May-07 20:10N 40°38' W 074°12'3 2.3
2018-May-07 19:03N 40°40' W 074°09'0 6.9
2018-May-07 18:59N 40°40' W 074°08'1 1.7
2018-May-07 18:30N 40°41' W 074°09'0 0.0
2018-May-07 18:00N 40°41' W 074°09'0 0.0
2018-May-07 17:30N 40°41' W 074°09'0 0.0
2018-May-07 17:00N 40°41' W 074°09'0 0.0
2018-May-07 16:30N 40°41' W 074°09'0 0.0
2018-May-07 15:59N 40°41' W 074°09'0 0.0
2018-May-07 15:23N 40°41' W 074°09'0 0.0
2018-May-07 15:00N 40°41' W 074°09'1 1.4
2018-May-07 14:29N 40°40' W 074°09'1 0.0
2018-May-05 23:02N 40°39' W 074°09'0 8.6
2018-May-05 22:59N 40°39' W 074°08'4 7.4
2018-May-05 22:30N 40°38' W 074°04'2 3.3
2018-May-05 22:00N 40°36' W 074°03'0 0.0
2018-May-05 21:30N 40°36' W 074°03'0 0.0
2018-May-05 20:58N 40°36' W 074°03'0 0.0
2018-May-05 20:29N 40°36' W 074°03'0 0.2
2018-May-05 20:00N 40°36' W 074°03'1 0.9
2018-May-05 18:54N 40°37' W 074°04'1 2.3
2018-May-05 18:30N 40°38' W 074°04'0 0.5
2018-May-05 18:00N 40°38' W 074°04'0 0.0
2018-May-05 17:29N 40°38' W 074°04'0 0.1
2018-May-05 17:00N 40°38' W 074°04'4 6.5
2018-May-05 16:23N 40°40' W 074°09'2 0.7
2018-May-05 14:14N 40°41' W 074°09'3 0.1
2018-May-03 18:34N 40°38' W 074°12'3 6.8
2018-May-03 18:12N 40°39' W 074°09'3 4.8
2018-May-03 17:40N 40°42' W 074°09'0 0.0
2018-May-03 17:24N 40°42' W 074°09'0 0.0
2018-May-03 15:18N 40°42' W 074°09'0 0.0
2018-May-03 14:54N 40°42' W 074°09'2 4.4
2018-May-03 14:26N 40°40' W 074°09'3 3.8
2018-May-03 13:41N 40°38' W 074°12'0 0.0
2018-May-02 15:40N 40°38' W 074°12'1 5.5
2018-May-02 15:26N 40°39' W 074°10'2 0.9
2018-May-02 12:52N 40°41' W 074°09'2 5.8
2018-May-02 12:28N 40°39' W 074°10'1 2.8
2018-May-02 12:00N 40°38' W 074°12'2 0.1
2018-May-01 07:21N 40°39' W 074°09'3 7.4
2018-May-01 06:58N 40°39' W 074°05'2 0.7
2018-May-01 03:52N 40°38' W 074°03'0 0.6
2018-May-01 03:30N 40°38' W 074°03'0 0.2
2018-May-01 03:00N 40°38' W 074°03'0 0.0
2018-May-01 02:30N 40°38' W 074°03'0 0.0
2018-May-01 02:00N 40°38' W 074°03'0 0.0
2018-May-01 01:30N 40°38' W 074°03'0 0.0
2018-May-01 01:00N 40°38' W 074°03'0 0.0
2018-May-01 00:30N 40°38' W 074°03'0 0.1
2018-May-01 00:00N 40°38' W 074°03'3 0.1
2018-Apr-29 16:11N 40°39' W 074°07'2 5.8
2018-Apr-29 15:51N 40°39' W 074°04'3 8.4
2018-Apr-29 15:30N 40°42' W 074°02'5 1.7
2018-Apr-29 12:50N 40°46' W 074°00'3 9.9
2018-Apr-29 12:30N 40°43' W 074°01'5 9.2
2018-Apr-29 11:55N 40°39' W 074°06'  
Track history (hours):
 
Tides and Currents Weather Stations Pressure Air Temp Water Temp Dewpoint Dewpoint Depression Visibility Wind Speed Wind Dir Waves Ship Positions

Emma Miller

Owner: Marine Oil Service of New York, Elizabeth, NJ. More information available from US FCC via Universal Licensing System and Coast Guard Vessel Documentation Center.

Last reported at 2018-May-07 20:10 UTC. Time now 2018-May-26 04:13 UTC.
Position N 40°38' W 074°12'.
Warning: this ship's position is 18 days out of date.

; draft 1.7 m.

Type: Tanker. MMSI: 367393330.

Date/timePositionNaut miles runAvg speedWind from/ knotsBaromVisibWave heightAir tempDewpointWater temp
2018-May-07 20:10N 40°38' W 074°12'3 2.3
2018-May-07 19:03N 40°40' W 074°09'0 6.9
2018-May-07 18:59N 40°40' W 074°08'1 1.7
2018-May-07 18:30N 40°41' W 074°09'0 0.0
2018-May-07 18:00N 40°41' W 074°09'0 0.0
2018-May-07 17:30N 40°41' W 074°09'0 0.0
2018-May-07 17:00N 40°41' W 074°09'0 0.0
2018-May-07 16:30N 40°41' W 074°09'0 0.0
2018-May-07 15:59N 40°41' W 074°09'0 0.0
2018-May-07 15:23N 40°41' W 074°09'0 0.0
2018-May-07 15:00N 40°41' W 074°09'1 1.4
2018-May-07 14:29N 40°40' W 074°09'1 0.0
2018-May-05 23:02N 40°39' W 074°09'0 8.6
2018-May-05 22:59N 40°39' W 074°08'4 7.4
2018-May-05 22:30N 40°38' W 074°04'2 3.3
2018-May-05 22:00N 40°36' W 074°03'0 0.0
2018-May-05 21:30N 40°36' W 074°03'0 0.0
2018-May-05 20:58N 40°36' W 074°03'0 0.0
2018-May-05 20:29N 40°36' W 074°03'0 0.2
2018-May-05 20:00N 40°36' W 074°03'1 0.9
2018-May-05 18:54N 40°37' W 074°04'1 2.3
2018-May-05 18:30N 40°38' W 074°04'0 0.5
2018-May-05 18:00N 40°38' W 074°04'0 0.0
2018-May-05 17:29N 40°38' W 074°04'0 0.1
2018-May-05 17:00N 40°38' W 074°04'4 6.5
2018-May-05 16:23N 40°40' W 074°09'2 0.7
2018-May-05 14:14N 40°41' W 074°09'3 0.1
2018-May-03 18:34N 40°38' W 074°12'3 6.8
2018-May-03 18:12N 40°39' W 074°09'3 4.8
2018-May-03 17:40N 40°42' W 074°09'0 0.0
2018-May-03 17:24N 40°42' W 074°09'0 0.0
2018-May-03 15:18N 40°42' W 074°09'0 0.0
2018-May-03 14:54N 40°42' W 074°09'2 4.4
2018-May-03 14:26N 40°40' W 074°09'3 3.8
2018-May-03 13:41N 40°38' W 074°12'0 0.0
2018-May-02 15:40N 40°38' W 074°12'1 5.5
2018-May-02 15:26N 40°39' W 074°10'2 0.9
2018-May-02 12:52N 40°41' W 074°09'2 5.8
2018-May-02 12:28N 40°39' W 074°10'1 2.8
2018-May-02 12:00N 40°38' W 074°12'2 0.1
2018-May-01 07:21N 40°39' W 074°09'3 7.4
2018-May-01 06:58N 40°39' W 074°05'2 0.7
2018-May-01 03:52N 40°38' W 074°03'0 0.6
2018-May-01 03:30N 40°38' W 074°03'0 0.2
2018-May-01 03:00N 40°38' W 074°03'0 0.0
2018-May-01 02:30N 40°38' W 074°03'0 0.0
2018-May-01 02:00N 40°38' W 074°03'0 0.0
2018-May-01 01:30N 40°38' W 074°03'0 0.0
2018-May-01 01:00N 40°38' W 074°03'0 0.0
2018-May-01 00:30N 40°38' W 074°03'0 0.1
2018-May-01 00:00N 40°38' W 074°03'3 0.1
2018-Apr-29 16:11N 40°39' W 074°07'2 5.8
2018-Apr-29 15:51N 40°39' W 074°04'3 8.4
2018-Apr-29 15:30N 40°42' W 074°02'5 1.7
2018-Apr-29 12:50N 40°46' W 074°00'3 9.9
2018-Apr-29 12:30N 40°43' W 074°01'5 9.2
2018-Apr-29 11:55N 40°39' W 074°06'  

Dump ship's entire track history